createdAt,value
2023-02-06T00:00:14.688Z,4.33
2023-02-06T00:04:18.659Z,4.27
2023-02-06T00:08:26.153Z,4.26
2023-02-06T00:12:34.930Z,4.22
2023-02-06T00:16:40.990Z,4.34
2023-02-06T00:20:43.930Z,4.23
2023-02-06T00:24:51.102Z,4.18
2023-02-06T00:28:54.738Z,4.22
2023-02-06T00:33:02.340Z,4.19
2023-02-06T00:37:05.451Z,4.36
2023-02-06T00:41:17.827Z,4.18
2023-02-06T00:45:24.453Z,4.15
2023-02-06T00:49:30.902Z,4.22
2023-02-06T00:53:37.763Z,4.08
2023-02-06T00:57:48.552Z,4.31
2023-02-06T01:01:56.288Z,4.33
2023-02-06T01:06:02.310Z,4.33
2023-02-06T01:10:06.307Z,4.34
2023-02-06T01:14:15.228Z,4.40
2023-02-06T01:18:21.929Z,4.10
2023-02-06T01:22:48.570Z,4.15
2023-02-06T01:27:06.318Z,3.97
2023-02-06T01:31:14.114Z,3.69
2023-02-06T01:35:18.277Z,3.47
2023-02-06T01:39:25.821Z,3.27
2023-02-06T01:43:34.730Z,3.62
2023-02-06T01:47:38.677Z,3.60
2023-02-06T01:51:42.494Z,3.64
2023-02-06T01:55:52.420Z,3.59
2023-02-06T01:59:59.500Z,3.76
2023-02-06T02:04:06.808Z,3.72
2023-02-06T02:08:25.064Z,3.71
2023-02-06T02:12:36.782Z,3.72
2023-02-06T02:16:48.678Z,3.59
2023-02-06T02:21:43.261Z,3.53
2023-02-06T02:26:40.543Z,3.48
2023-02-06T02:31:08.491Z,3.36
2023-02-06T02:35:21.604Z,3.37
2023-02-06T02:39:34.362Z,3.05
2023-02-06T02:43:46.668Z,2.92
2023-02-06T02:47:56.565Z,3.09
2023-02-06T02:52:08.928Z,2.94
2023-02-06T02:56:18.189Z,2.54
2023-02-06T03:00:23.364Z,2.36
2023-02-06T03:04:29.567Z,2.36
2023-02-06T03:08:45.956Z,2.36
2023-02-06T03:12:54.178Z,2.38
2023-02-06T03:17:00.817Z,2.61
2023-02-06T03:21:05.437Z,2.33
2023-02-06T03:25:14.327Z,2.15
2023-02-06T03:29:18.259Z,1.90
2023-02-06T03:33:23.666Z,2.03
2023-02-06T03:37:27.213Z,1.92
2023-02-06T03:41:38.740Z,1.98
2023-02-06T03:45:43.493Z,2.35
2023-02-06T03:49:47.537Z,2.22
2023-02-06T03:53:51.660Z,2.03
2023-02-06T03:58:03.556Z,2.15
2023-02-06T04:02:07.154Z,2.13
2023-02-06T04:06:10.327Z,2.37
2023-02-06T04:10:20.578Z,2.31
2023-02-06T04:14:24.936Z,2.11
2023-02-06T04:18:28.772Z,2.33
2023-02-06T04:22:38.299Z,2.18
2023-02-06T04:26:44.725Z,2.17
2023-02-06T04:30:50.165Z,2.00
2023-02-06T04:34:53.245Z,1.96
2023-02-06T04:38:56.763Z,1.76
2023-02-06T04:43:00.162Z,1.73
2023-02-06T04:47:04.560Z,1.23
2023-02-06T04:51:08.119Z,1.44
2023-02-06T04:55:11.365Z,1.49
2023-02-06T04:59:14.552Z,1.33
2023-02-06T05:03:26.138Z,1.15
2023-02-06T05:07:29.150Z,1.09
2023-02-06T05:11:32.749Z,0.91
2023-02-06T05:15:38.130Z,0.80
2023-02-06T05:19:45.893Z,1.09
2023-02-06T05:23:48.703Z,0.69
2023-02-06T05:27:58.755Z,0.74
2023-02-06T05:32:05.171Z,0.85
2023-02-06T05:36:10.579Z,1.03
2023-02-06T05:40:14.765Z,1.22
2023-02-06T05:44:21.219Z,1.37
2023-02-06T05:48:35.064Z,1.50
2023-02-06T05:52:40.609Z,1.49
2023-02-06T05:56:44.620Z,1.49
2023-02-06T06:00:50.988Z,1.59
2023-02-06T06:04:55.243Z,1.71
2023-02-06T06:09:02.561Z,1.58
2023-02-06T06:13:09.803Z,1.71
2023-02-06T06:17:13.336Z,1.72
2023-02-06T06:21:18.882Z,1.63
2023-02-06T06:25:23.491Z,1.57
2023-02-06T06:29:26.598Z,1.77
2023-02-06T06:33:29.699Z,1.81
2023-02-06T06:37:32.561Z,1.88
2023-02-06T06:41:37.227Z,1.85
2023-02-06T06:45:40.273Z,1.88
2023-02-06T06:49:43.642Z,1.98
2023-02-06T06:53:58.596Z,2.05
2023-02-06T06:58:03.898Z,2.04
2023-02-06T07:02:07.751Z,2.17
2023-02-06T07:06:20.640Z,2.13
2023-02-06T07:10:23.760Z,2.13
2023-02-06T07:14:28.879Z,2.15
2023-02-06T07:18:38.750Z,1.93
2023-02-06T07:22:47.754Z,2.14
2023-02-06T07:26:59.181Z,2.34
2023-02-06T07:31:16.297Z,2.31
2023-02-06T07:35:28.270Z,2.23
2023-02-06T07:39:33.939Z,2.21
2023-02-06T07:43:37.401Z,2.22
2023-02-06T07:47:42.884Z,2.24
2023-02-06T07:51:49.884Z,2.23
2023-02-06T07:55:56.134Z,2.40
2023-02-06T08:00:00.129Z,2.25
2023-02-06T08:04:05.122Z,2.46
2023-02-06T08:08:09.998Z,2.40
2023-02-06T08:12:13.596Z,2.49
2023-02-06T08:16:18.734Z,2.63
2023-02-06T08:20:26.292Z,2.69
2023-02-06T08:24:30.475Z,2.76
2023-02-06T08:28:39.454Z,2.82
2023-02-06T08:32:43.686Z,2.95
2023-02-06T08:36:49.242Z,2.97
2023-02-06T08:40:53.178Z,2.93
2023-02-06T08:44:57.098Z,3.12
2023-02-06T08:49:04.428Z,3.13
2023-02-06T08:53:18.693Z,2.91
2023-02-06T08:57:26.816Z,2.90
2023-02-06T09:01:32.808Z,2.90
2023-02-06T09:05:37.668Z,3.00
2023-02-06T09:09:42.568Z,3.17
2023-02-06T09:13:49.614Z,3.63
2023-02-06T09:18:01.107Z,3.73
2023-02-06T09:22:06.918Z,3.76
2023-02-06T09:26:17.553Z,3.65
2023-02-06T09:30:21.226Z,3.45
2023-02-06T09:34:26.254Z,3.50
2023-02-06T09:38:42.757Z,3.38
2023-02-06T09:42:51.269Z,3.23
2023-02-06T09:47:01.570Z,3.35
2023-02-06T09:51:23.935Z,3.53
2023-02-06T09:55:36.027Z,3.03
2023-02-06T09:59:45.195Z,2.67
2023-02-06T10:04:20.728Z,2.66
2023-02-06T10:08:27.846Z,2.79
2023-02-06T10:12:37.605Z,3.14
2023-02-06T10:16:48.872Z,3.31
2023-02-06T10:20:54.864Z,3.50
2023-02-06T10:25:13.852Z,3.37
2023-02-06T10:29:21.318Z,3.70
2023-02-06T10:33:31.413Z,3.83
2023-02-06T10:37:56.075Z,4.28
2023-02-06T10:42:13.785Z,4.25
2023-02-06T10:46:34.582Z,3.62
2023-02-06T10:50:44.411Z,3.22
2023-02-06T10:54:58.832Z,3.79
2023-02-06T10:59:23.786Z,4.11
2023-02-06T11:03:39.748Z,4.27
2023-02-06T11:07:51.276Z,4.48
2023-02-06T11:11:56.014Z,4.33
2023-02-06T11:16:02.910Z,4.76
2023-02-06T11:20:20.531Z,4.60
2023-02-06T11:24:38.885Z,4.79
2023-02-06T11:28:57.251Z,4.27
2023-02-06T11:33:07.429Z,4.47
2023-02-06T11:37:32.550Z,4.85
2023-02-06T11:42:05.859Z,4.89
2023-02-06T11:46:16.393Z,4.96
2023-02-06T11:50:29.695Z,5.23
2023-02-06T11:54:35.718Z,4.91
2023-02-06T11:58:40.868Z,5.33
2023-02-06T12:03:00.767Z,5.72
2023-02-06T12:07:08.696Z,5.09
2023-02-06T12:11:40.079Z,5.41
2023-02-06T12:15:54.353Z,5.81
2023-02-06T12:20:04.039Z,5.98
2023-02-06T12:24:21.416Z,5.73
2023-02-06T12:28:31.252Z,5.83
2023-02-06T12:32:43.758Z,5.52
2023-02-06T12:37:12.482Z,5.31
2023-02-06T12:41:38.569Z,5.64
2023-02-06T12:45:48.342Z,5.80
2023-02-06T12:50:00.396Z,5.52
2023-02-06T12:54:20.765Z,6.08
2023-02-06T12:58:32.541Z,5.94
2023-02-06T13:02:55.878Z,5.57
2023-02-06T13:07:08.732Z,5.98
2023-02-06T13:11:29.084Z,5.92
2023-02-06T13:15:37.010Z,5.51
2023-02-06T13:20:02.523Z,5.92
2023-02-06T13:24:21.322Z,6.24
2023-02-06T13:29:10.368Z,6.43
2023-02-06T13:33:20.088Z,6.22
2023-02-06T13:37:47.317Z,6.10
2023-02-06T13:41:56.746Z,6.40
2023-02-06T13:46:07.411Z,6.31
2023-02-06T13:50:37.720Z,6.38
2023-02-06T13:55:05.250Z,6.04
2023-02-06T13:59:18.935Z,5.94
2023-02-06T14:03:28.433Z,6.06
2023-02-06T14:08:02.382Z,5.88
2023-02-06T14:12:32.105Z,6.18
2023-02-06T14:16:44.752Z,5.91
2023-02-06T14:20:56.876Z,5.83
2023-02-06T14:25:10.862Z,5.68
2023-02-06T14:29:24.884Z,6.01
2023-02-06T14:34:18.700Z,5.77
2023-02-06T14:38:48.825Z,5.71
2023-02-06T14:43:06.681Z,5.59
2023-02-06T14:47:19.241Z,5.45
2023-02-06T14:51:31.267Z,5.39
2023-02-06T14:55:39.283Z,5.42
2023-02-06T14:59:54.279Z,5.48
2023-02-06T15:04:11.630Z,5.36
2023-02-06T15:08:25.641Z,5.34
2023-02-06T15:12:34.117Z,5.32
2023-02-06T15:16:52.257Z,5.35
2023-02-06T15:20:59.850Z,5.32
2023-02-06T15:25:16.501Z,5.32
2023-02-06T15:29:30.973Z,5.18
2023-02-06T15:33:35.087Z,4.80
2023-02-06T15:37:38.968Z,4.65
2023-02-06T15:41:47.571Z,4.64
2023-02-06T15:45:56.344Z,4.57
2023-02-06T15:50:02.573Z,4.63
2023-02-06T15:54:17.852Z,4.57
2023-02-06T15:58:26.363Z,4.40
2023-02-06T16:02:45.345Z,4.32
2023-02-06T16:07:01.345Z,4.17
2023-02-06T16:11:35.574Z,4.13
2023-02-06T16:15:42.069Z,3.71
2023-02-06T16:20:05.337Z,3.78
2023-02-06T16:24:21.154Z,3.35
2023-02-06T16:28:41.636Z,3.05
2023-02-06T16:33:05.294Z,2.94
2023-02-06T16:37:14.395Z,2.87
2023-02-06T16:41:35.529Z,3.14
2023-02-06T16:45:53.926Z,2.57
2023-02-06T16:49:59.880Z,2.33
2023-02-06T16:54:03.857Z,2.27
2023-02-06T16:58:08.163Z,2.04
2023-02-06T17:02:12.911Z,2.15
2023-02-06T17:06:20.818Z,1.98
2023-02-06T17:10:28.578Z,2.12
2023-02-06T17:14:32.709Z,2.01
2023-02-06T17:18:40.515Z,1.93
2023-02-06T17:22:45.360Z,1.99
2023-02-06T17:27:14.352Z,1.77
2023-02-06T17:31:19.013Z,1.81
2023-02-06T17:35:23.186Z,1.56
2023-02-06T17:39:33.877Z,1.74
2023-02-06T17:43:37.878Z,1.55
2023-02-06T17:47:44.577Z,1.28
2023-02-06T17:51:59.024Z,1.16
2023-02-06T17:56:10.579Z,1.29
2023-02-06T18:00:17.841Z,1.27
2023-02-06T18:04:21.682Z,0.91
2023-02-06T18:08:25.366Z,0.86
2023-02-06T18:12:30.371Z,0.85
2023-02-06T18:16:38.215Z,0.70
2023-02-06T18:20:43.727Z,0.85
2023-02-06T18:24:48.191Z,0.69
2023-02-06T18:28:53.433Z,0.55
2023-02-06T18:33:01.972Z,0.47
2023-02-06T18:37:07.730Z,0.36
2023-02-06T18:41:31.746Z,0.36
2023-02-06T18:45:39.392Z,0.49
2023-02-06T18:49:43.330Z,0.20
2023-02-06T18:53:46.622Z,0.10
2023-02-06T18:57:51.821Z,0.09
2023-02-06T19:01:57.017Z,0.05
2023-02-06T19:06:00.567Z,-0.01
2023-02-06T19:10:09.821Z,-0.03
2023-02-06T19:14:16.961Z,-0.03
2023-02-06T19:18:38.905Z,0.01
2023-02-06T19:22:52.220Z,0.22
2023-02-06T19:26:56.585Z,-0.05
2023-02-06T19:31:01.870Z,-0.29
2023-02-06T19:35:07.641Z,-0.46
2023-02-06T19:39:13.996Z,-0.35
2023-02-06T19:43:17.863Z,-0.45
2023-02-06T19:47:21.933Z,-0.48
2023-02-06T19:51:29.557Z,-0.44
2023-02-06T19:55:33.431Z,-0.34
2023-02-06T19:59:37.295Z,-0.46
2023-02-06T20:03:41.216Z,-0.52
2023-02-06T20:07:46.843Z,-0.65
2023-02-06T20:11:50.572Z,-0.19
2023-02-06T20:15:54.255Z,0.18
2023-02-06T20:20:10.601Z,0.09
2023-02-06T20:24:18.704Z,-0.04
2023-02-06T20:28:22.182Z,-0.13
2023-02-06T20:32:25.960Z,0.09
2023-02-06T20:36:31.126Z,0.24
2023-02-06T20:40:41.525Z,0.44
2023-02-06T20:44:45.156Z,0.39
2023-02-06T20:48:54.534Z,0.45
2023-02-06T20:52:58.761Z,0.26
2023-02-06T20:57:03.918Z,0.19
2023-02-06T21:01:14.041Z,0.23
2023-02-06T21:05:18.678Z,0.28
2023-02-06T21:09:22.510Z,0.32
2023-02-06T21:13:27.565Z,0.47
2023-02-06T21:17:34.977Z,0.50
2023-02-06T21:21:39.096Z,0.25
2023-02-06T21:25:42.955Z,0.64
2023-02-06T21:29:48.312Z,0.64
2023-02-06T21:33:58.609Z,0.84
2023-02-06T21:38:04.581Z,0.90
2023-02-06T21:42:11.959Z,0.53
2023-02-06T21:46:17.045Z,0.23
2023-02-06T21:50:20.883Z,0.41
2023-02-06T21:54:29.906Z,0.05
2023-02-06T21:58:34.607Z,0.01
2023-02-06T22:02:40.113Z,0.07
2023-02-06T22:06:43.873Z,0.26
2023-02-06T22:10:48.265Z,-0.18
2023-02-06T22:14:52.014Z,0.23
2023-02-06T22:19:06.308Z,-0.43
2023-02-06T22:23:10.501Z,0.19
2023-02-06T22:27:14.426Z,-0.31
2023-02-06T22:31:19.788Z,-0.33
2023-02-06T22:35:30.516Z,-0.27
2023-02-06T22:39:38.307Z,-0.45
2023-02-06T22:43:44.684Z,-0.17
2023-02-06T22:47:48.749Z,-0.41
2023-02-06T22:52:05.018Z,-0.27
2023-02-06T22:56:35.054Z,-0.03
2023-02-06T23:00:38.962Z,-0.26
2023-02-06T23:04:42.622Z,-0.49
2023-02-06T23:08:48.180Z,-0.38
2023-02-06T23:12:55.603Z,-0.63
2023-02-06T23:17:00.130Z,-0.13
2023-02-06T23:21:08.364Z,-0.09
2023-02-06T23:25:17.072Z,-0.45
2023-02-06T23:29:23.949Z,-0.75
2023-02-06T23:33:28.458Z,-0.74
2023-02-06T23:37:35.740Z,-0.72
2023-02-06T23:41:44.425Z,-0.74
2023-02-06T23:45:51.734Z,-0.82
2023-02-06T23:49:55.611Z,-0.66
2023-02-06T23:54:03.097Z,-0.37
